PWSweather.com
Personal Weather Stations
Station Observations
IMAZOWIE6
WarszawaPL

WarszawaPL

Lat: 52.27957, Lon: 21.05489

Elevation: 100

Station Type: WS1080

http://stacjapogody.waw.pl/

High Low Average
Temperature 80.6°F27.0°C 61.2°F16.2°C 71.4°F21.9°C
Dew Point -164.7°F-109.3°C -166.7°F-110.4°C -165.7°F-109.8°C
Winds 4.0 mph 6.4 kmh Calm Calm 1.0 mph N1.6 kmh N
Wind Gusts 7.4 mph11.9 kmh -- 3.0 mph4.8 kmh
Humidity - - -
Pressure 29.55 in1000.7 mb 29.42 in996.3 mb -
Precipitation 0.00 in0.0 mm - -
Hour Temp Dew Point Humidity Winds Wind Gusts Pressure Precip Precip Rate Daily Precip Total
12:02 AM 70.7°F21.5°C -165.7°F-109.8°C - 1.4 mph N2.3 kmh N 2.8 mph4.5 kmh 29.44 in997.0 mb 0.00 in0.0 mm 0.00 in0.0 mm 0.00 in0.0 mm
12:17 AM 70.5°F21.4°C -165.7°F-109.8°C - 0.6 mph N1.0 kmh N 2.0 mph3.2 kmh 29.43 in996.6 mb 0.00 in0.0 mm 0.00 in0.0 mm 0.00 in0.0 mm
12:32 AM 70.3°F21.3°C -165.8°F-109.9°C - 0.6 mph N1.0 kmh N 2.8 mph4.5 kmh 29.43 in996.6 mb 0.00 in0.0 mm 0.00 in0.0 mm 0.00 in0.0 mm
12:47 AM 70.3°F21.3°C -165.8°F-109.9°C - 0.6 mph N1.0 kmh N 3.4 mph5.5 kmh 29.43 in996.6 mb 0.00 in0.0 mm 0.00 in0.0 mm 0.00 in0.0 mm
01:02 AM 70.0°F21.1°C -165.8°F-109.9°C - 0.6 mph N1.0 kmh N 2.8 mph4.5 kmh 29.42 in996.3 mb 0.00 in0.0 mm 0.00 in0.0 mm 0.00 in0.0 mm
01:17 AM 69.8°F21.0°C -165.8°F-109.9°C - 1.4 mph N2.3 kmh N 2.8 mph4.5 kmh 29.42 in996.3 mb 0.00 in0.0 mm 0.00 in0.0 mm 0.00 in0.0 mm
01:32 AM 69.6°F20.9°C -165.8°F-109.9°C - Calm Calm 1.4 mph2.3 kmh 29.43 in996.6 mb 0.00 in0.0 mm 0.00 in0.0 mm 0.00 in0.0 mm
01:47 AM 69.4°F20.8°C -165.9°F-109.9°C - Calm Calm -- 29.42 in996.3 mb 0.00 in0.0 mm 0.00 in0.0 mm 0.00 in0.0 mm
02:02 AM 69.1°F20.6°C -165.9°F-109.9°C - Calm Calm -- 29.42 in996.3 mb 0.00 in0.0 mm 0.00 in0.0 mm 0.00 in0.0 mm
02:17 AM 69.1°F20.6°C -165.9°F-109.9°C - Calm Calm 1.4 mph2.3 kmh 29.42 in996.3 mb 0.00 in0.0 mm 0.00 in0.0 mm 0.00 in0.0 mm
02:33 AM 68.9°F20.5°C -165.9°F-109.9°C - Calm Calm 1.4 mph2.3 kmh 29.42 in996.3 mb 0.00 in0.0 mm 0.00 in0.0 mm 0.00 in0.0 mm
02:49 AM 68.9°F20.5°C -165.9°F-109.9°C - 0.6 mph N1.0 kmh N 3.4 mph5.5 kmh 29.42 in996.3 mb 0.00 in0.0 mm 0.00 in0.0 mm 0.00 in0.0 mm
03:02 AM 68.5°F20.3°C -165.9°F-109.9°C - Calm Calm 0.6 mph1.0 kmh 29.43 in996.6 mb 0.00 in0.0 mm 0.00 in0.0 mm 0.00 in0.0 mm
03:17 AM 68.4°F20.2°C -166.0°F-110.0°C - Calm Calm 1.4 mph2.3 kmh 29.43 in996.6 mb 0.00 in0.0 mm 0.00 in0.0 mm 0.00 in0.0 mm
03:32 AM 68.2°F20.1°C -166.0°F-110.0°C - Calm Calm 1.4 mph2.3 kmh 29.43 in996.6 mb 0.00 in0.0 mm 0.00 in0.0 mm 0.00 in0.0 mm
03:47 AM 68.2°F20.1°C -166.0°F-110.0°C - Calm Calm 1.4 mph2.3 kmh 29.43 in996.6 mb 0.00 in0.0 mm 0.00 in0.0 mm 0.00 in0.0 mm
04:02 AM 68.4°F20.2°C -166.0°F-110.0°C - 0.6 mph N1.0 kmh N 2.8 mph4.5 kmh 29.43 in996.6 mb 0.00 in0.0 mm 0.00 in0.0 mm 0.00 in0.0 mm
04:17 AM 68.4°F20.2°C -166.0°F-110.0°C - Calm Calm 2.0 mph3.2 kmh 29.44 in997.0 mb 0.00 in0.0 mm 0.00 in0.0 mm 0.00 in0.0 mm
04:32 AM 68.4°F20.2°C -166.0°F-110.0°C - 0.6 mph N1.0 kmh N 3.4 mph5.5 kmh 29.44 in997.0 mb 0.00 in0.0 mm 0.00 in0.0 mm 0.00 in0.0 mm
04:47 AM 68.7°F20.4°C -165.9°F-109.9°C - 1.4 mph N2.3 kmh N 2.8 mph4.5 kmh 29.43 in996.6 mb 0.00 in0.0 mm 0.00 in0.0 mm 0.00 in0.0 mm
05:02 AM 68.9°F20.5°C -165.9°F-109.9°C - Calm Calm 1.4 mph2.3 kmh 29.44 in997.0 mb 0.00 in0.0 mm 0.00 in0.0 mm 0.00 in0.0 mm
05:17 AM 69.1°F20.6°C -165.9°F-109.9°C - 0.6 mph N1.0 kmh N 4.0 mph6.4 kmh 29.44 in997.0 mb 0.00 in0.0 mm 0.00 in0.0 mm 0.00 in0.0 mm
05:32 AM 69.6°F20.9°C -165.8°F-109.9°C - 0.6 mph N1.0 kmh N 2.0 mph3.2 kmh 29.44 in997.0 mb 0.00 in0.0 mm 0.00 in0.0 mm 0.00 in0.0 mm
05:47 AM 69.6°F20.9°C -165.8°F-109.9°C - 1.4 mph N2.3 kmh N 4.0 mph6.4 kmh 29.45 in997.3 mb 0.00 in0.0 mm 0.00 in0.0 mm 0.00 in0.0 mm
06:02 AM 70.0°F21.1°C -165.8°F-109.9°C - 0.6 mph N1.0 kmh N 2.0 mph3.2 kmh 29.46 in997.6 mb 0.00 in0.0 mm 0.00 in0.0 mm 0.00 in0.0 mm
06:17 AM 69.6°F20.9°C -165.8°F-109.9°C - 1.4 mph N2.3 kmh N 3.4 mph5.5 kmh 29.46 in997.6 mb 0.00 in0.0 mm 0.00 in0.0 mm 0.00 in0.0 mm
06:32 AM 74.1°F23.4°C -165.4°F-109.7°C - 0.6 mph N1.0 kmh N 2.0 mph3.2 kmh 29.45 in997.3 mb 0.00 in0.0 mm 0.00 in0.0 mm 0.00 in0.0 mm
06:47 AM 80.6°F27.0°C -164.7°F-109.3°C - 2.0 mph N3.2 kmh N 5.4 mph8.7 kmh 29.45 in997.3 mb 0.00 in0.0 mm 0.00 in0.0 mm 0.00 in0.0 mm
07:02 AM 80.4°F26.9°C -164.8°F-109.3°C - 0.6 mph N1.0 kmh N 3.4 mph5.5 kmh 29.46 in997.6 mb 0.00 in0.0 mm 0.00 in0.0 mm 0.00 in0.0 mm
07:17 AM 78.6°F25.9°C -164.9°F-109.4°C - 0.6 mph N1.0 kmh N 2.0 mph3.2 kmh 29.46 in997.6 mb 0.00 in0.0 mm 0.00 in0.0 mm 0.00 in0.0 mm
07:32 AM 75.4°F24.1°C -165.3°F-109.6°C - Calm Calm 0.6 mph1.0 kmh 29.46 in997.6 mb 0.00 in0.0 mm 0.00 in0.0 mm 0.00 in0.0 mm
07:47 AM 74.5°F23.6°C -165.4°F-109.7°C - 1.4 mph N2.3 kmh N 4.0 mph6.4 kmh 29.46 in997.6 mb 0.00 in0.0 mm 0.00 in0.0 mm 0.00 in0.0 mm
08:02 AM 76.1°F24.5°C -165.2°F-109.6°C - 3.4 mph N5.5 kmh N 6.2 mph10.0 kmh 29.47 in998.0 mb 0.00 in0.0 mm 0.00 in0.0 mm 0.00 in0.0 mm
08:17 AM 75.2°F24.0°C -165.3°F-109.6°C - Calm Calm 2.0 mph3.2 kmh 29.47 in998.0 mb 0.00 in0.0 mm 0.00 in0.0 mm 0.00 in0.0 mm
08:32 AM 74.3°F23.5°C -165.4°F-109.7°C - Calm Calm 1.4 mph2.3 kmh 29.47 in998.0 mb 0.00 in0.0 mm 0.00 in0.0 mm 0.00 in0.0 mm
08:47 AM 79.0°F26.1°C -164.9°F-109.4°C - 0.6 mph N1.0 kmh N 2.8 mph4.5 kmh 29.47 in998.0 mb 0.00 in0.0 mm 0.00 in0.0 mm 0.00 in0.0 mm
09:02 AM 77.0°F25.0°C -165.1°F-109.5°C - 2.0 mph N3.2 kmh N 6.2 mph10.0 kmh 29.48 in998.3 mb 0.00 in0.0 mm 0.00 in0.0 mm 0.00 in0.0 mm
09:17 AM 75.7°F24.3°C -165.2°F-109.6°C - 1.4 mph N2.3 kmh N 3.4 mph5.5 kmh 29.48 in998.3 mb 0.00 in0.0 mm 0.00 in0.0 mm 0.00 in0.0 mm
09:32 AM 77.5°F25.3°C -165.0°F-109.4°C - Calm Calm 1.4 mph2.3 kmh 29.48 in998.3 mb 0.00 in0.0 mm 0.00 in0.0 mm 0.00 in0.0 mm
09:47 AM 77.2°F25.1°C -165.1°F-109.5°C - 1.4 mph N2.3 kmh N 4.8 mph7.7 kmh 29.49 in998.6 mb 0.00 in0.0 mm 0.00 in0.0 mm 0.00 in0.0 mm
10:02 AM 78.1°F25.6°C -165.0°F-109.4°C - 2.0 mph N3.2 kmh N 5.4 mph8.7 kmh 29.49 in998.6 mb 0.00 in0.0 mm 0.00 in0.0 mm 0.00 in0.0 mm
10:17 AM 76.3°F24.6°C -165.2°F-109.6°C - Calm Calm 2.0 mph3.2 kmh 29.49 in998.6 mb 0.00 in0.0 mm 0.00 in0.0 mm 0.00 in0.0 mm
10:32 AM 74.7°F23.7°C -165.3°F-109.6°C - 0.6 mph N1.0 kmh N 3.4 mph5.5 kmh 29.49 in998.6 mb 0.00 in0.0 mm 0.00 in0.0 mm 0.00 in0.0 mm
10:47 AM 73.6°F23.1°C -165.4°F-109.7°C - 0.6 mph N1.0 kmh N 2.0 mph3.2 kmh 29.49 in998.6 mb 0.00 in0.0 mm 0.00 in0.0 mm 0.00 in0.0 mm
11:02 AM 73.9°F23.3°C -165.4°F-109.7°C - Calm Calm 1.4 mph2.3 kmh 29.49 in998.6 mb 0.00 in0.0 mm 0.00 in0.0 mm 0.00 in0.0 mm
11:17 AM 73.4°F23.0°C -165.5°F-109.7°C - Calm Calm 1.4 mph2.3 kmh 29.50 in999.0 mb 0.00 in0.0 mm 0.00 in0.0 mm 0.00 in0.0 mm
11:32 AM 73.9°F23.3°C -165.4°F-109.7°C - Calm Calm 2.8 mph4.5 kmh 29.50 in999.0 mb 0.00 in0.0 mm 0.00 in0.0 mm 0.00 in0.0 mm
11:47 AM 74.5°F23.6°C -165.4°F-109.7°C - Calm Calm 1.4 mph2.3 kmh 29.51 in999.3 mb 0.00 in0.0 mm 0.00 in0.0 mm 0.00 in0.0 mm
12:02 PM 73.4°F23.0°C -165.5°F-109.7°C - Calm Calm 2.0 mph3.2 kmh 29.51 in999.3 mb 0.00 in0.0 mm 0.00 in0.0 mm 0.00 in0.0 mm
12:17 PM 75.9°F24.4°C -165.2°F-109.6°C - 1.4 mph N2.3 kmh N 3.4 mph5.5 kmh 29.51 in999.3 mb 0.00 in0.0 mm 0.00 in0.0 mm 0.00 in0.0 mm
12:32 PM 74.8°F23.8°C -165.3°F-109.6°C - 2.0 mph N3.2 kmh N 5.4 mph8.7 kmh 29.51 in999.3 mb 0.00 in0.0 mm 0.00 in0.0 mm 0.00 in0.0 mm
12:47 PM 73.6°F23.1°C -165.4°F-109.7°C - 0.6 mph N1.0 kmh N 2.8 mph4.5 kmh 29.52 in999.7 mb 0.00 in0.0 mm 0.00 in0.0 mm 0.00 in0.0 mm
01:02 PM 71.8°F22.1°C -165.6°F-109.8°C - Calm Calm 1.4 mph2.3 kmh 29.52 in999.7 mb 0.00 in0.0 mm 0.00 in0.0 mm 0.00 in0.0 mm
01:17 PM 73.0°F22.8°C -165.5°F-109.7°C - 2.0 mph N3.2 kmh N 3.4 mph5.5 kmh 29.52 in999.7 mb 0.00 in0.0 mm 0.00 in0.0 mm 0.00 in0.0 mm
01:32 PM 75.9°F24.4°C -165.2°F-109.6°C - 0.6 mph N1.0 kmh N 4.0 mph6.4 kmh 29.52 in999.7 mb 0.00 in0.0 mm 0.00 in0.0 mm 0.00 in0.0 mm
01:47 PM 75.9°F24.4°C -165.2°F-109.6°C - 4.0 mph N6.4 kmh N 7.4 mph11.9 kmh 29.51 in999.3 mb 0.00 in0.0 mm 0.00 in0.0 mm 0.00 in0.0 mm
02:02 PM 75.4°F24.1°C -165.3°F-109.6°C - Calm Calm 1.4 mph2.3 kmh 29.51 in999.3 mb 0.00 in0.0 mm 0.00 in0.0 mm 0.00 in0.0 mm
02:17 PM 72.1°F22.3°C -165.6°F-109.8°C - Calm Calm 2.0 mph3.2 kmh 29.52 in999.7 mb 0.00 in0.0 mm 0.00 in0.0 mm 0.00 in0.0 mm
02:32 PM 73.0°F22.8°C -165.5°F-109.7°C - 2.0 mph N3.2 kmh N 6.2 mph10.0 kmh 29.52 in999.7 mb 0.00 in0.0 mm 0.00 in0.0 mm 0.00 in0.0 mm
02:47 PM 74.1°F23.4°C -165.4°F-109.7°C - 0.6 mph N1.0 kmh N 2.0 mph3.2 kmh 29.51 in999.3 mb 0.00 in0.0 mm 0.00 in0.0 mm 0.00 in0.0 mm
03:02 PM 74.3°F23.5°C -165.4°F-109.7°C - 3.4 mph N5.5 kmh N 7.4 mph11.9 kmh 29.51 in999.3 mb 0.00 in0.0 mm 0.00 in0.0 mm 0.00 in0.0 mm
03:17 PM 74.7°F23.7°C -165.3°F-109.6°C - Calm Calm 1.4 mph2.3 kmh 29.51 in999.3 mb 0.00 in0.0 mm 0.00 in0.0 mm 0.00 in0.0 mm
03:32 PM 74.3°F23.5°C -165.4°F-109.7°C - 0.6 mph N1.0 kmh N 3.4 mph5.5 kmh 29.50 in999.0 mb 0.00 in0.0 mm 0.00 in0.0 mm 0.00 in0.0 mm
03:47 PM 73.9°F23.3°C -165.4°F-109.7°C - 3.4 mph N5.5 kmh N 6.8 mph10.9 kmh 29.50 in999.0 mb 0.00 in0.0 mm 0.00 in0.0 mm 0.00 in0.0 mm
04:02 PM 74.1°F23.4°C -165.4°F-109.7°C - 0.6 mph N1.0 kmh N 4.0 mph6.4 kmh 29.50 in999.0 mb 0.00 in0.0 mm 0.00 in0.0 mm 0.00 in0.0 mm
04:17 PM 73.9°F23.3°C -165.4°F-109.7°C - 0.6 mph N1.0 kmh N 3.4 mph5.5 kmh 29.50 in999.0 mb 0.00 in0.0 mm 0.00 in0.0 mm 0.00 in0.0 mm
04:32 PM 73.6°F23.1°C -165.4°F-109.7°C - Calm Calm 2.8 mph4.5 kmh 29.49 in998.6 mb 0.00 in0.0 mm 0.00 in0.0 mm 0.00 in0.0 mm
04:47 PM 73.8°F23.2°C -165.4°F-109.7°C - 0.6 mph N1.0 kmh N 2.0 mph3.2 kmh 29.50 in999.0 mb 0.00 in0.0 mm 0.00 in0.0 mm 0.00 in0.0 mm
05:02 PM 73.9°F23.3°C -165.4°F-109.7°C - 0.6 mph N1.0 kmh N 4.8 mph7.7 kmh 29.50 in999.0 mb 0.00 in0.0 mm 0.00 in0.0 mm 0.00 in0.0 mm
05:17 PM 73.4°F23.0°C -165.5°F-109.7°C - 1.4 mph N2.3 kmh N 3.4 mph5.5 kmh 29.50 in999.0 mb 0.00 in0.0 mm 0.00 in0.0 mm 0.00 in0.0 mm
05:32 PM 73.2°F22.9°C -165.5°F-109.7°C - Calm Calm 1.4 mph2.3 kmh 29.50 in999.0 mb 0.00 in0.0 mm 0.00 in0.0 mm 0.00 in0.0 mm
05:47 PM 73.0°F22.8°C -165.5°F-109.7°C - 0.6 mph N1.0 kmh N 2.0 mph3.2 kmh 29.50 in999.0 mb 0.00 in0.0 mm 0.00 in0.0 mm 0.00 in0.0 mm
06:02 PM 72.5°F22.5°C -165.6°F-109.8°C - 2.8 mph N4.5 kmh N 6.2 mph10.0 kmh 29.50 in999.0 mb 0.00 in0.0 mm 0.00 in0.0 mm 0.00 in0.0 mm
06:17 PM 72.1°F22.3°C -165.6°F-109.8°C - 2.0 mph N3.2 kmh N 3.4 mph5.5 kmh 29.50 in999.0 mb 0.00 in0.0 mm 0.00 in0.0 mm 0.00 in0.0 mm
06:32 PM 72.1°F22.3°C -165.6°F-109.8°C - Calm Calm -- 29.50 in999.0 mb 0.00 in0.0 mm 0.00 in0.0 mm 0.00 in0.0 mm
06:47 PM 71.4°F21.9°C -165.7°F-109.8°C - Calm Calm 0.6 mph1.0 kmh 29.50 in999.0 mb 0.00 in0.0 mm 0.00 in0.0 mm 0.00 in0.0 mm
07:02 PM 70.7°F21.5°C -165.7°F-109.8°C - 0.6 mph N1.0 kmh N 2.8 mph4.5 kmh 29.50 in999.0 mb 0.00 in0.0 mm 0.00 in0.0 mm 0.00 in0.0 mm
07:17 PM 70.3°F21.3°C -165.8°F-109.9°C - Calm Calm 2.0 mph3.2 kmh 29.50 in999.0 mb 0.00 in0.0 mm 0.00 in0.0 mm 0.00 in0.0 mm
07:32 PM 70.0°F21.1°C -165.8°F-109.9°C - Calm Calm 0.6 mph1.0 kmh 29.51 in999.3 mb 0.00 in0.0 mm 0.00 in0.0 mm 0.00 in0.0 mm
07:47 PM 69.3°F20.7°C -165.9°F-109.9°C - Calm Calm 1.4 mph2.3 kmh 29.52 in999.7 mb 0.00 in0.0 mm 0.00 in0.0 mm 0.00 in0.0 mm
08:02 PM 68.7°F20.4°C -165.9°F-109.9°C - Calm Calm 1.4 mph2.3 kmh 29.52 in999.7 mb 0.00 in0.0 mm 0.00 in0.0 mm 0.00 in0.0 mm
08:17 PM 68.0°F20.0°C -166.0°F-110.0°C - Calm Calm 1.4 mph2.3 kmh 29.52 in999.7 mb 0.00 in0.0 mm 0.00 in0.0 mm 0.00 in0.0 mm
08:32 PM 67.5°F19.7°C -166.1°F-110.1°C - Calm Calm 2.0 mph3.2 kmh 29.53 in1000.0 mb 0.00 in0.0 mm 0.00 in0.0 mm 0.00 in0.0 mm
08:47 PM 66.7°F19.3°C -166.1°F-110.1°C - Calm Calm 2.0 mph3.2 kmh 29.53 in1000.0 mb 0.00 in0.0 mm 0.00 in0.0 mm 0.00 in0.0 mm
09:02 PM 66.2°F19.0°C -166.2°F-110.1°C - Calm Calm 0.6 mph1.0 kmh 29.53 in1000.0 mb 0.00 in0.0 mm 0.00 in0.0 mm 0.00 in0.0 mm
09:17 PM 65.7°F18.7°C -166.2°F-110.1°C - 0.6 mph N1.0 kmh N 2.0 mph3.2 kmh 29.53 in1000.0 mb 0.00 in0.0 mm 0.00 in0.0 mm 0.00 in0.0 mm
09:32 PM 65.1°F18.4°C -166.3°F-110.2°C - 0.6 mph N1.0 kmh N 2.0 mph3.2 kmh 29.54 in1000.3 mb 0.00 in0.0 mm 0.00 in0.0 mm 0.00 in0.0 mm
09:47 PM 64.6°F18.1°C -166.3°F-110.2°C - Calm Calm 0.6 mph1.0 kmh 29.54 in1000.3 mb 0.00 in0.0 mm 0.00 in0.0 mm 0.00 in0.0 mm
10:02 PM 64.2°F17.9°C -166.4°F-110.2°C - Calm Calm 2.8 mph4.5 kmh 29.54 in1000.3 mb 0.00 in0.0 mm 0.00 in0.0 mm 0.00 in0.0 mm
10:17 PM 63.9°F17.7°C -166.4°F-110.2°C - 0.6 mph N1.0 kmh N 1.4 mph2.3 kmh 29.54 in1000.3 mb 0.00 in0.0 mm 0.00 in0.0 mm 0.00 in0.0 mm
10:32 PM 63.5°F17.5°C -166.5°F-110.3°C - Calm Calm 0.6 mph1.0 kmh 29.54 in1000.3 mb 0.00 in0.0 mm 0.00 in0.0 mm 0.00 in0.0 mm
10:47 PM 63.3°F17.4°C -166.5°F-110.3°C - 0.6 mph N1.0 kmh N 2.0 mph3.2 kmh 29.54 in1000.3 mb 0.00 in0.0 mm 0.00 in0.0 mm 0.00 in0.0 mm
11:02 PM 63.0°F17.2°C -166.5°F-110.3°C - Calm Calm 1.4 mph2.3 kmh 29.55 in1000.7 mb 0.00 in0.0 mm 0.00 in0.0 mm 0.00 in0.0 mm
11:17 PM 62.2°F16.8°C -166.6°F-110.3°C - Calm Calm 0.6 mph1.0 kmh 29.55 in1000.7 mb 0.00 in0.0 mm 0.00 in0.0 mm 0.00 in0.0 mm
11:32 PM 61.7°F16.5°C -166.6°F-110.3°C - Calm Calm 1.4 mph2.3 kmh 29.55 in1000.7 mb 0.00 in0.0 mm 0.00 in0.0 mm 0.00 in0.0 mm
11:47 PM 61.2°F16.2°C -166.7°F-110.4°C - Calm Calm 0.6 mph1.0 kmh 29.55 in1000.7 mb 0.00 in0.0 mm 0.00 in0.0 mm 0.00 in0.0 mm